Time;durP1;ratioP1;P1;durP2;ratioP2;P2;SDS_P1;SDS_P2;PMS_P1;PMS_P2;Temp;Humidity;BMP_temperature;BMP_pressure;BME280_temperature;BME280_humidity;BME280_pressure;Samples;Min_cycle;Max_cycle;Signal;HPM_P1;HPM_P2
2023/12/28 00:01:05;;;;;;;;;;;;;;;10.27;48.31;101132.16;5059128;28;20420;-82
2023/12/28 00:03:30;;;;;;;;;;;;;;;10.34;48.14;101144.59;5064119;28;20003;-82
2023/12/28 00:05:55;;;;;;;;;;;;;;;10.29;47.96;101139.94;5064211;28;19916;-81
2023/12/28 00:08:20;;;;;;;;;;;;;;;10.32;47.96;101133.28;5060978;28;20689;-83
2023/12/28 00:10:46;;;;;;;;;;;;;;;10.33;48.00;101126.88;5063471;28;19970;-82
2023/12/28 00:13:11;;;;;;;;;;;;;;;10.32;47.95;101128.75;5065920;28;19920;-82
2023/12/28 00:15:36;;;;;;;;;;;;;;;10.26;48.00;101122.50;5066436;28;19920;-81
2023/12/28 00:18:01;;;;;;;;;;;;;;;10.18;48.20;101124.66;5065032;28;19928;-81
2023/12/28 00:20:27;;;;;;;;;;;;;;;10.14;48.22;101129.69;5060660;28;19979;-81
2023/12/28 00:22:52;;;;;;;;;;;;;;;10.12;48.49;101110.38;5055850;28;19917;-81
2023/12/28 00:25:17;;;;;;;;;;;;;;;10.07;48.38;101101.44;5062759;28;19921;-82
2023/12/28 00:27:43;;;;;;;;;;;;;;;10.11;48.44;101090.00;5067032;28;19924;-81
2023/12/28 00:30:08;;;;;;;;;;;;;;;10.12;48.27;101082.78;5064432;28;19922;-82
2023/12/28 00:32:34;;;;;;;;;;;;;;;10.14;48.45;101064.63;5055601;28;19990;-83
2023/12/28 00:34:59;;;;;;;;;;;;;;;10.15;48.38;101060.88;5063425;28;19917;-81
2023/12/28 00:37:24;;;;;;;;;;;;;;;10.16;48.52;101052.63;5062401;28;19931;-81
2023/12/28 00:39:50;;;;;;;;;;;;;;;10.12;48.44;101051.47;5066760;28;19939;-81
2023/12/28 00:42:15;;;;;;;;;;;;;;;10.10;48.74;101040.19;5061503;28;20010;-82
2023/12/28 00:44:41;;;;;;;;;;;;;;;10.08;48.70;101041.47;5065591;28;19923;-82
2023/12/28 00:47:06;;;;;;;;;;;;;;;10.04;48.80;101035.75;5062260;28;19924;-82
2023/12/28 00:49:32;;;;;;;;;;;;;;;9.96;48.59;101028.13;5065133;28;19925;-82
2023/12/28 00:51:57;;;;;;;;;;;;;;;9.96;48.78;101017.41;5065165;28;19943;-81
2023/12/28 00:54:22;;;;;;;;;;;;;;;9.99;48.69;101028.44;5062673;28;20416;-81
2023/12/28 00:56:47;;;;;;;;;;;;;;;9.99;48.89;101027.63;5055152;28;19916;-81
2023/12/28 00:59:13;;;;;;;;;;;;;;;9.93;48.90;101009.84;5062878;28;20384;-82
2023/12/28 01:01:38;;;;;;;;;;;;;;;9.96;48.95;100996.81;5060912;28;19920;-82
2023/12/28 01:04:03;;;;;;;;;;;;;;;9.98;48.87;101000.06;5065965;28;20463;-81
2023/12/28 01:06:28;;;;;;;;;;;;;;;9.98;48.78;101005.41;5066011;28;19921;-83
2023/12/28 01:08:57;;;;;;;;;;;;;;;9.95;48.88;100999.72;5065535;28;19917;-84
2023/12/28 01:11:22;;;;;;;;;;;;;;;9.96;48.82;101002.16;5066709;28;20514;-82
2023/12/28 01:13:47;;;;;;;;;;;;;;;9.99;48.91;101017.75;5067175;28;19925;-83
2023/12/28 01:16:13;;;;;;;;;;;;;;;10.02;48.89;101010.28;5068495;28;19935;-82
2023/12/28 01:18:38;;;;;;;;;;;;;;;9.99;48.81;100996.31;5060587;28;19927;-82
2023/12/28 01:21:03;;;;;;;;;;;;;;;9.99;49.25;101000.88;5063279;28;19924;-81
2023/12/28 01:23:29;;;;;;;;;;;;;;;9.99;48.71;100993.66;5067650;28;19928;-81
2023/12/28 01:25:55;;;;;;;;;;;;;;;10.00;48.91;100992.59;5062013;28;19931;-81
2023/12/28 01:28:20;;;;;;;;;;;;;;;10.03;48.97;100993.97;5062126;28;19931;-82
2023/12/28 01:30:45;;;;;;;;;;;;;;;10.02;48.80;101004.94;5056758;28;19921;-81
2023/12/28 01:33:11;;;;;;;;;;;;;;;10.02;48.92;101002.25;5065343;28;19926;-82
2023/12/28 01:35:36;;;;;;;;;;;;;;;10.05;48.81;101015.97;5068548;28;19920;-79
2023/12/28 01:38:01;;;;;;;;;;;;;;;10.09;48.91;101025.19;5062281;28;19943;-81
2023/12/28 01:40:27;;;;;;;;;;;;;;;10.15;49.19;101015.38;5064288;28;20278;-81
2023/12/28 01:42:52;;;;;;;;;;;;;;;10.20;49.17;101018.94;5066809;28;20003;-81
2023/12/28 01:45:17;;;;;;;;;;;;;;;10.27;48.68;101030.38;5069068;28;19924;-81
2023/12/28 01:47:43;;;;;;;;;;;;;;;10.36;48.59;101022.75;5070538;28;19921;-82
2023/12/28 01:50:09;;;;;;;;;;;;;;;10.37;48.73;101023.56;5067520;28;20388;-82
2023/12/28 01:52:34;;;;;;;;;;;;;;;10.42;48.73;101021.00;5061666;28;19924;-81
2023/12/28 01:55:00;;;;;;;;;;;;;;;10.47;48.47;101005.84;5063510;28;20007;-81
2023/12/28 01:57:25;;;;;;;;;;;;;;;10.52;48.55;100995.19;5062152;28;19960;-81
2023/12/28 01:59:51;;;;;;;;;;;;;;;10.56;48.85;100999.00;5062170;28;19923;-82
2023/12/28 02:02:17;;;;;;;;;;;;;;;10.59;48.44;100995.88;5062577;28;20336;-81
2023/12/28 02:04:43;;;;;;;;;;;;;;;10.62;48.29;100993.75;5061286;28;19924;-81
2023/12/28 02:07:08;;;;;;;;;;;;;;;10.65;48.74;100987.91;5062445;28;19968;-81
2023/12/28 02:09:33;;;;;;;;;;;;;;;10.69;48.19;100970.28;5061269;28;19921;-81
2023/12/28 02:11:59;;;;;;;;;;;;;;;10.67;48.34;100954.47;5058769;28;20301;-81
2023/12/28 02:14:24;;;;;;;;;;;;;;;10.70;48.35;100959.31;5059679;28;19920;-81
2023/12/28 02:16:58;;;;;;;;;;;;;;;10.73;48.44;100932.03;5061739;28;20372;-82
2023/12/28 02:19:53;;;;;;;;;;;;;;;10.78;48.20;100915.25;5062052;28;19931;-81
2023/12/28 02:22:18;;;;;;;;;;;;;;;10.84;48.29;100901.66;5055911;28;19967;-81
2023/12/28 02:25:13;;;;;;;;;;;;;;;10.86;47.74;100902.22;5057434;28;20334;-81
2023/12/28 02:27:41;;;;;;;;;;;;;;;10.81;48.43;100917.44;5052259;28;19920;-81
2023/12/28 02:30:07;;;;;;;;;;;;;;;10.83;47.80;100893.88;5066968;28;19942;-81
2023/12/28 02:32:39;;;;;;;;;;;;;;;10.83;47.91;100897.34;5060553;28;19932;-81
2023/12/28 02:35:36;;;;;;;;;;;;;;;10.86;48.10;100930.91;5062973;28;20344;-81
2023/12/28 02:38:03;;;;;;;;;;;;;;;10.88;47.84;100977.03;5060825;28;20377;-81
2023/12/28 02:40:29;;;;;;;;;;;;;;;10.83;48.00;100966.25;5068374;28;19924;-81
2023/12/28 02:42:55;;;;;;;;;;;;;;;10.79;47.77;100973.16;5060428;28;20290;-81
2023/12/28 02:45:20;;;;;;;;;;;;;;;10.77;48.37;100989.47;5060058;28;19932;-81
2023/12/28 02:47:45;;;;;;;;;;;;;;;10.80;48.45;100983.63;5060534;28;20399;-81
2023/12/28 02:50:11;;;;;;;;;;;;;;;10.81;48.05;100976.41;5059755;28;20025;-81
2023/12/28 02:52:36;;;;;;;;;;;;;;;10.82;47.96;100965.44;5058812;28;19931;-82
2023/12/28 02:55:01;;;;;;;;;;;;;;;10.87;47.87;100959.31;5063592;28;20418;-81
2023/12/28 02:57:27;;;;;;;;;;;;;;;10.92;47.62;100946.00;5060518;28;19925;-81
2023/12/28 02:59:52;;;;;;;;;;;;;;;10.95;47.64;100950.03;5060948;28;20521;-82
2023/12/28 03:02:17;;;;;;;;;;;;;;;10.99;47.38;100946.66;5056689;28;20018;-82
2023/12/28 03:04:43;;;;;;;;;;;;;;;10.99;47.73;100954.69;5057875;28;20576;-81
2023/12/28 03:07:08;;;;;;;;;;;;;;;11.00;47.53;100948.28;5060655;28;19921;-83
2023/12/28 03:09:34;;;;;;;;;;;;;;;11.00;47.76;100948.28;5059243;28;19927;-82
2023/12/28 03:12:00;;;;;;;;;;;;;;;11.01;47.58;100952.56;5058862;28;20514;-82
2023/12/28 03:14:25;;;;;;;;;;;;;;;11.03;47.77;100936.25;5061114;28;19977;-82
2023/12/28 03:16:50;;;;;;;;;;;;;;;11.04;47.47;100938.69;5055954;28;19932;-81
2023/12/28 03:19:16;;;;;;;;;;;;;;;11.06;47.26;100939.22;5057975;28;19920;-81
2023/12/28 03:21:42;;;;;;;;;;;;;;;11.10;47.25;100934.19;5061390;28;20007;-81
2023/12/28 03:24:07;;;;;;;;;;;;;;;11.09;47.18;100945.97;5066524;28;19931;-83
2023/12/28 03:26:34;;;;;;;;;;;;;;;11.16;47.13;100936.72;5060540;28;19917;-81
2023/12/28 03:29:00;;;;;;;;;;;;;;;11.16;47.49;100947.44;5062340;28;20364;-82
2023/12/28 03:31:25;;;;;;;;;;;;;;;11.23;47.28;100941.06;5054204;28;19928;-83
2023/12/28 03:33:50;;;;;;;;;;;;;;;11.29;47.21;100940.06;5063175;28;20291;-83
2023/12/28 03:36:19;;;;;;;;;;;;;;;11.36;46.88;100946.09;5058276;28;19951;-82
2023/12/28 03:38:45;;;;;;;;;;;;;;;11.40;46.95;100923.88;5057467;28;19928;-84
2023/12/28 03:41:17;;;;;;;;;;;;;;;11.45;46.61;100933.84;5057371;28;19928;-82
2023/12/28 03:43:42;;;;;;;;;;;;;;;11.49;46.79;100937.69;5064366;28;19946;-83
2023/12/28 03:46:08;;;;;;;;;;;;;;;11.50;46.80;100952.72;5060298;28;20498;-82
2023/12/28 03:48:33;;;;;;;;;;;;;;;11.49;47.04;100951.91;5061418;28;19928;-82
2023/12/28 03:50:58;;;;;;;;;;;;;;;11.55;46.88;100955.47;5059571;28;19923;-81
2023/12/28 03:53:24;;;;;;;;;;;;;;;11.62;47.12;100958.75;5059178;28;19920;-81
2023/12/28 03:55:49;;;;;;;;;;;;;;;11.68;46.97;100947.03;5053347;28;19921;-81
2023/12/28 03:58:14;;;;;;;;;;;;;;;11.78;47.16;100949.03;5059603;28;19924;-81
2023/12/28 04:00:39;;;;;;;;;;;;;;;11.85;46.91;100952.38;5060757;28;19921;-81
2023/12/28 04:03:05;;;;;;;;;;;;;;;11.85;46.78;100954.22;5063868;28;20292;-82
2023/12/28 04:05:30;;;;;;;;;;;;;;;11.88;46.67;100951.06;5066869;28;19931;-81
2023/12/28 04:07:55;;;;;;;;;;;;;;;11.92;46.72;100939.56;5060251;28;20422;-81
2023/12/28 04:10:29;;;;;;;;;;;;;;;11.96;46.63;100929.13;5062321;28;20006;-82
2023/12/28 04:12:57;;;;;;;;;;;;;;;12.01;46.76;100939.91;5063927;28;20013;-81
2023/12/28 04:15:22;;;;;;;;;;;;;;;12.03;46.94;100943.16;5056623;28;19931;-82
2023/12/28 04:17:47;;;;;;;;;;;;;;;12.10;46.72;100949.13;5062305;28;19925;-82
2023/12/28 04:20:13;;;;;;;;;;;;;;;12.18;46.78;100948.66;5059022;28;19947;-82
2023/12/28 04:22:38;;;;;;;;;;;;;;;12.24;46.51;100942.31;5056592;28;20070;-81
2023/12/28 04:25:03;;;;;;;;;;;;;;;12.30;46.63;100945.84;5058799;28;20380;-81
2023/12/28 04:27:29;;;;;;;;;;;;;;;12.35;46.62;100944.00;5092302;28;20403;-82
2023/12/28 04:29:54;;;;;;;;;;;;;;;12.36;46.54;100948.31;5058762;28;19921;-81
2023/12/28 04:32:19;;;;;;;;;;;;;;;12.39;46.46;100945.13;5061865;28;19951;-81
2023/12/28 04:34:45;;;;;;;;;;;;;;;12.44;46.29;100946.25;5057045;28;19920;-81
2023/12/28 04:37:10;;;;;;;;;;;;;;;12.47;46.22;100951.09;5060972;28;20407;-81
2023/12/28 04:39:35;;;;;;;;;;;;;;;12.46;46.17;100944.09;5061576;28;20633;-81
2023/12/28 04:42:00;;;;;;;;;;;;;;;12.49;46.20;100946.28;5066968;28;19920;-82
2023/12/28 04:44:26;;;;;;;;;;;;;;;12.51;46.11;100946.84;5059998;28;19923;-81
2023/12/28 04:46:51;;;;;;;;;;;;;;;12.53;46.26;100955.44;5060250;28;19920;-81
2023/12/28 04:49:16;;;;;;;;;;;;;;;12.55;45.97;100958.69;5061823;28;19920;-81
2023/12/28 04:51:45;;;;;;;;;;;;;;;12.60;46.40;100961.44;5058502;28;19929;-81
2023/12/28 04:54:10;;;;;;;;;;;;;;;12.61;46.28;100974.63;5061296;28;20316;-81
2023/12/28 04:56:35;;;;;;;;;;;;;;;12.61;46.41;100968.44;5053570;28;19920;-81
2023/12/28 04:59:00;;;;;;;;;;;;;;;12.65;45.98;100969.53;5057292;28;19924;-82
2023/12/28 05:01:26;;;;;;;;;;;;;;;12.68;46.18;100958.25;5058717;28;20549;-81
2023/12/28 05:03:51;;;;;;;;;;;;;;;12.71;46.01;100973.88;5056700;28;20491;-82
2023/12/28 05:06:16;;;;;;;;;;;;;;;12.71;45.85;100977.38;5063378;28;19927;-82
2023/12/28 05:08:41;;;;;;;;;;;;;;;12.73;45.90;100970.94;5059930;28;20751;-81
2023/12/28 05:11:07;;;;;;;;;;;;;;;12.73;45.86;100966.38;5066933;28;19927;-82
2023/12/28 05:13:34;;;;;;;;;;;;;;;12.72;45.94;100986.25;5061970;28;19921;-81
2023/12/28 05:15:59;;;;;;;;;;;;;;;12.74;45.96;100989.50;5059487;28;20289;-81
2023/12/28 05:18:24;;;;;;;;;;;;;;;12.79;45.90;100991.44;5058747;28;19928;-81
2023/12/28 05:20:49;;;;;;;;;;;;;;;12.84;45.84;100994.16;5058163;28;19923;-81
2023/12/28 05:23:15;;;;;;;;;;;;;;;12.84;45.97;100994.16;5058647;28;19931;-81
2023/12/28 05:25:40;;;;;;;;;;;;;;;12.84;46.09;100999.53;5062895;28;19916;-81
2023/12/28 05:28:05;;;;;;;;;;;;;;;12.87;46.21;100993.63;5060204;28;19920;-83
2023/12/28 05:30:31;;;;;;;;;;;;;;;12.88;45.91;100997.94;5059836;28;20411;-81
2023/12/28 05:32:56;;;;;;;;;;;;;;;12.89;46.20;101000.38;5058169;28;20393;-82
2023/12/28 05:35:21;;;;;;;;;;;;;;;12.91;45.68;101000.94;5055165;28;20521;-81
2023/12/28 05:37:46;;;;;;;;;;;;;;;12.92;45.83;101007.94;5054464;28;19923;-81
2023/12/28 05:40:12;;;;;;;;;;;;;;;12.96;45.64;101011.75;5059172;28;20348;-81
2023/12/28 05:42:37;;;;;;;;;;;;;;;12.95;45.90;101018.19;5060796;28;19920;-81
2023/12/28 05:45:02;;;;;;;;;;;;;;;12.97;45.72;101026.81;5061997;28;19916;-81
2023/12/28 05:47:28;;;;;;;;;;;;;;;12.95;45.75;101012.00;5057540;28;19924;-82
2023/12/28 05:49:53;;;;;;;;;;;;;;;12.96;45.67;101013.63;5064697;28;19924;-81
2023/12/28 05:52:19;;;;;;;;;;;;;;;12.93;45.77;101014.94;5062304;28;19928;-81
2023/12/28 05:54:44;;;;;;;;;;;;;;;12.92;45.74;101012.50;5061970;28;20615;-82
2023/12/28 05:57:10;;;;;;;;;;;;;;;12.93;45.74;101019.53;5067006;28;20037;-82
2023/12/28 05:59:39;;;;;;;;;;;;;;;12.87;45.65;101018.66;5068838;28;19927;-81
2023/12/28 06:02:05;;;;;;;;;;;;;;;12.89;45.94;101024.56;5071187;28;19916;-81
2023/12/28 06:04:30;;;;;;;;;;;;;;;12.96;45.75;101022.50;5060363;28;19931;-81
2023/12/28 06:06:55;;;;;;;;;;;;;;;13.00;45.63;101025.47;5064524;28;19917;-82
2023/12/28 06:09:20;;;;;;;;;;;;;;;12.99;45.79;101024.69;5067364;28;20824;-81
2023/12/28 06:11:46;;;;;;;;;;;;;;;13.04;45.61;101023.09;5067705;28;19977;-81
2023/12/28 06:14:11;;;;;;;;;;;;;;;13.02;45.79;101026.03;5068288;28;20369;-81
2023/12/28 06:16:36;;;;;;;;;;;;;;;13.06;45.82;101023.63;5064236;28;20046;-82
2023/12/28 06:19:01;;;;;;;;;;;;;;;13.08;45.47;101022.31;5066495;28;19923;-82
2023/12/28 06:21:28;;;;;;;;;;;;;;;13.09;45.62;101028.50;5068290;28;19931;-81
2023/12/28 06:23:53;;;;;;;;;;;;;;;13.12;45.56;101033.38;5061190;28;19921;-81
2023/12/28 06:26:18;;;;;;;;;;;;;;;13.10;45.75;101030.94;5069889;28;19983;-81
2023/12/28 06:28:43;;;;;;;;;;;;;;;13.11;45.81;101031.75;5067998;28;20043;-82
2023/12/28 06:31:09;;;;;;;;;;;;;;;13.15;45.62;101035.56;5066229;28;20438;-82
2023/12/28 06:33:34;;;;;;;;;;;;;;;13.18;45.53;101043.94;5058704;28;19920;-81
2023/12/28 06:36:04;;;;;;;;;;;;;;;13.15;45.46;101025.59;5060785;28;19967;-81
2023/12/28 06:38:31;;;;;;;;;;;;;;;13.14;45.43;101031.25;5058123;28;19927;-82
2023/12/28 06:40:56;;;;;;;;;;;;;;;13.12;45.54;101044.97;5057790;28;20357;-81
2023/12/28 06:43:22;;;;;;;;;;;;;;;13.09;45.48;101045.44;5058804;28;19952;-82
2023/12/28 06:45:47;;;;;;;;;;;;;;;13.11;45.49;101048.72;5065053;28;19917;-81
2023/12/28 06:48:12;;;;;;;;;;;;;;;13.07;45.21;101036.00;5057645;28;20461;-81
2023/12/28 06:50:37;;;;;;;;;;;;;;;13.04;45.47;101037.34;5059321;28;20399;-82
2023/12/28 06:53:03;;;;;;;;;;;;;;;13.01;45.31;101038.66;5058195;28;19929;-82
2023/12/28 06:55:28;;;;;;;;;;;;;;;13.02;45.55;101044.84;5060767;28;19971;-81
2023/12/28 06:57:53;;;;;;;;;;;;;;;13.04;45.62;101052.69;5061902;28;20335;-81
2023/12/28 07:00:19;;;;;;;;;;;;;;;13.02;45.61;101051.06;5066256;28;20400;-82
2023/12/28 07:02:44;;;;;;;;;;;;;;;13.02;45.64;101051.06;5061393;28;20011;-82
2023/12/28 07:05:09;;;;;;;;;;;;;;;13.02;45.62;101053.75;5059849;28;19921;-83
2023/12/28 07:07:36;;;;;;;;;;;;;;;13.01;45.72;101054.81;5057542;28;20014;-81
2023/12/28 07:10:02;;;;;;;;;;;;;;;13.04;45.49;101050.78;5060980;28;19920;-81
2023/12/28 07:12:27;;;;;;;;;;;;;;;13.04;45.46;101052.69;5066188;28;20932;-81
2023/12/28 07:14:52;;;;;;;;;;;;;;;13.01;45.51;101046.75;5061016;28;19916;-81
2023/12/28 07:17:18;;;;;;;;;;;;;;;12.97;45.65;101059.09;5055194;28;19924;-81
2023/12/28 07:19:44;;;;;;;;;;;;;;;12.98;45.73;101063.41;5054102;28;20384;-81
2023/12/28 07:22:09;;;;;;;;;;;;;;;12.97;45.33;101071.72;5060975;28;19964;-83
2023/12/28 07:24:34;;;;;;;;;;;;;;;12.91;45.55;101070.84;5058652;28;19920;-80
2023/12/28 07:27:00;;;;;;;;;;;;;;;12.96;45.52;101075.47;5060313;28;19971;-81
2023/12/28 07:29:25;;;;;;;;;;;;;;;12.95;45.63;101074.69;5060186;28;19952;-81
2023/12/28 07:31:50;;;;;;;;;;;;;;;12.94;45.62;101072.25;5059077;28;20537;-81
2023/12/28 07:34:15;;;;;;;;;;;;;;;12.92;45.85;101069.78;5059287;28;19946;-80
2023/12/28 07:36:43;;;;;;;;;;;;;;;12.96;45.80;101078.97;5056622;28;19939;-81
2023/12/28 07:39:08;;;;;;;;;;;;;;;13.02;45.59;101091.41;5061330;28;19924;-81
2023/12/28 07:41:33;;;;;;;;;;;;;;;13.02;45.59;101082.53;5057270;28;20011;-81
2023/12/28 07:43:59;;;;;;;;;;;;;;;13.00;45.86;101090.84;5056255;28;19959;-81
2023/12/28 07:46:24;;;;;;;;;;;;;;;12.98;45.80;101103.75;5058871;28;19920;-81
2023/12/28 07:48:49;;;;;;;;;;;;;;;12.97;45.68;101091.38;5056508;28;20011;-81
2023/12/28 07:51:14;;;;;;;;;;;;;;;13.03;45.83;101081.44;5056142;28;20365;-81
2023/12/28 07:53:40;;;;;;;;;;;;;;;13.06;45.94;101077.44;5057171;28;19924;-81
2023/12/28 07:56:05;;;;;;;;;;;;;;;13.02;45.80;101077.94;5060064;28;20404;-82
2023/12/28 07:58:30;;;;;;;;;;;;;;;13.07;45.88;101081.75;5054333;28;19928;-81
2023/12/28 08:00:56;;;;;;;;;;;;;;;13.10;45.86;101081.22;5046270;28;19924;-81
2023/12/28 08:03:21;;;;;;;;;;;;;;;13.09;46.14;101087.69;5049446;28;20017;-81
2023/12/28 08:05:46;;;;;;;;;;;;;;;13.13;45.88;101078.84;5050330;28;19921;-81
2023/12/28 08:08:12;;;;;;;;;;;;;;;13.15;46.11;101089.34;5050089;28;20582;-81
2023/12/28 08:10:37;;;;;;;;;;;;;;;13.15;46.16;101087.47;5058737;28;20046;-82
2023/12/28 08:13:03;;;;;;;;;;;;;;;13.17;46.26;101096.09;5057807;28;20503;-82
2023/12/28 08:15:28;;;;;;;;;;;;;;;13.19;46.22;101080.53;5052704;28;19965;-81
2023/12/28 08:17:53;;;;;;;;;;;;;;;13.19;46.32;101077.03;5059621;28;19965;-81
2023/12/28 08:20:19;;;;;;;;;;;;;;;13.20;46.46;101081.34;5052605;28;19924;-81
2023/12/28 08:22:44;;;;;;;;;;;;;;;13.26;46.27;101094.56;5051191;28;20007;-82
2023/12/28 08:25:10;;;;;;;;;;;;;;;13.29;46.07;101096.78;5048220;28;20374;-81
2023/12/28 08:27:35;;;;;;;;;;;;;;;13.33;46.22;101097.06;5049426;28;20382;-81
2023/12/28 08:30:01;;;;;;;;;;;;;;;13.33;46.19;101099.75;5049408;28;19978;-81
2023/12/28 08:32:28;;;;;;;;;;;;;;;13.39;46.29;101104.09;5048575;28;20452;-82
2023/12/28 08:34:53;;;;;;;;;;;;;;;13.40;46.21;101105.72;5048192;28;19928;-81
2023/12/28 08:37:18;;;;;;;;;;;;;;;13.45;46.30;101108.44;5048503;28;20529;-81
2023/12/28 08:39:44;;;;;;;;;;;;;;;13.48;46.50;101113.34;5048415;28;20375;-80
2023/12/28 08:42:09;;;;;;;;;;;;;;;13.49;46.49;101127.59;5051263;28;19925;-81
2023/12/28 08:44:36;;;;;;;;;;;;;;;13.56;46.60;101117.41;5048402;28;20522;-81
2023/12/28 08:47:02;;;;;;;;;;;;;;;13.60;46.52;101122.03;5048558;28;19925;-81
2023/12/28 08:49:27;;;;;;;;;;;;;;;13.66;46.28;101130.97;5064175;28;19989;-82
2023/12/28 08:51:52;;;;;;;;;;;;;;;13.71;46.48;101130.19;5049693;28;19925;-81
2023/12/28 08:54:18;;;;;;;;;;;;;;;13.74;46.53;101132.34;5048478;28;20019;-82
2023/12/28 08:56:43;;;;;;;;;;;;;;;13.78;46.39;101125.38;5048345;28;19924;-82
2023/12/28 08:59:09;;;;;;;;;;;;;;;13.82;46.32;101135.38;5048688;28;20817;-82
2023/12/28 09:01:34;;;;;;;;;;;;;;;13.88;46.38;101128.94;5049179;28;19920;-81
2023/12/28 09:03:59;;;;;;;;;;;;;;;13.91;46.31;101135.69;5048674;28;21261;-81
2023/12/28 09:06:25;;;;;;;;;;;;;;;13.94;46.39;101137.84;5048934;28;19969;-82
2023/12/28 09:08:51;;;;;;;;;;;;;;;13.98;46.38;101138.94;5046302;28;19930;-82
2023/12/28 09:11:17;;;;;;;;;;;;;;;14.04;46.23;101142.50;5049481;28;21143;-81
2023/12/28 09:13:42;;;;;;;;;;;;;;;14.06;46.23;101143.84;5047879;28;20656;-81
2023/12/28 09:16:09;;;;;;;;;;;;;;;14.07;46.45;101141.97;5047692;28;20031;-81
2023/12/28 09:18:37;;;;;;;;;;;;;;;14.06;46.50;101143.84;5048700;28;19977;-83
2023/12/28 09:21:02;;;;;;;;;;;;;;;14.06;46.47;101143.84;5044124;28;19924;-82
2023/12/28 09:23:27;;;;;;;;;;;;;;;14.11;46.26;101138.50;5049830;28;19980;-81
2023/12/28 09:25:53;;;;;;;;;;;;;;;14.08;46.55;101130.94;5052004;28;20332;-82
2023/12/28 09:28:18;;;;;;;;;;;;;;;14.11;46.59;101132.28;5051804;28;19924;-81
2023/12/28 09:30:43;;;;;;;;;;;;;;;14.15;46.86;101115.31;5051934;28;21357;-82
2023/12/28 09:33:08;;;;;;;;;;;;;;;14.18;46.48;101116.69;5052008;28;19973;-83
2023/12/28 09:35:35;;;;;;;;;;;;;;;14.25;46.56;101111.06;5050767;28;20510;-82
2023/12/28 09:38:01;;;;;;;;;;;;;;;14.26;46.41;101118.09;5052224;28;19925;-82
2023/12/28 09:40:26;;;;;;;;;;;;;;;14.34;46.21;101120.25;5053115;28;19928;-81
2023/12/28 09:42:56;;;;;;;;;;;;;;;14.29;46.31;101117.56;5051218;28;20438;-82
2023/12/28 09:45:22;;;;;;;;;;;;;;;14.30;46.46;101124.56;5052080;28;19924;-82
2023/12/28 09:47:50;;;;;;;;;;;;;;;14.33;46.38;101119.44;5052862;28;19921;-82
2023/12/28 09:50:17;;;;;;;;;;;;;;;14.42;46.39;101111.69;5057042;28;19958;-82
2023/12/28 09:52:42;;;;;;;;;;;;;;;14.48;46.19;101113.34;5056966;28;19932;-81
2023/12/28 09:55:08;;;;;;;;;;;;;;;14.50;46.06;101111.19;5065164;28;20211;-82
2023/12/28 09:57:34;;;;;;;;;;;;;;;14.46;46.20;101118.19;5060014;28;19946;-83
2023/12/28 09:59:59;;;;;;;;;;;;;;;14.45;46.32;101103.09;5060577;28;20389;-81
2023/12/28 10:02:25;;;;;;;;;;;;;;;14.45;46.28;101111.16;5059170;28;19927;-81
2023/12/28 10:04:50;;;;;;;;;;;;;;;14.53;46.17;101113.34;5059258;28;19955;-83
2023/12/28 10:07:15;;;;;;;;;;;;;;;14.55;46.20;101111.22;5060902;28;20450;-82
2023/12/28 10:09:40;;;;;;;;;;;;;;;14.64;45.98;101109.59;5059209;28;19921;-82
2023/12/28 10:12:06;;;;;;;;;;;;;;;14.71;45.94;101099.38;5061405;28;20396;-81
2023/12/28 10:14:31;;;;;;;;;;;;;;;14.78;45.71;101101.81;5057206;28;19916;-81
2023/12/28 10:16:57;;;;;;;;;;;;;;;14.85;45.89;101106.94;5059087;28;19923;-81
2023/12/28 10:19:25;;;;;;;;;;;;;;;14.93;45.58;101096.44;5052744;28;19946;-81
2023/12/28 10:21:50;;;;;;;;;;;;;;;15.05;45.59;101101.56;5059163;28;19917;-81
2023/12/28 10:24:16;;;;;;;;;;;;;;;15.08;45.49;101109.13;5058906;28;19966;-82
2023/12/28 10:26:42;;;;;;;;;;;;;;;15.15;45.32;101104.28;5064159;28;19931;-83
2023/12/28 10:29:07;;;;;;;;;;;;;;;15.28;45.43;101095.66;5064093;28;19930;-82
2023/12/28 10:31:33;;;;;;;;;;;;;;;15.36;44.95;101097.00;5057395;28;19925;-82
2023/12/28 10:34:02;;;;;;;;;;;;;;;15.43;44.61;101089.41;5058911;28;19925;-81
2023/12/28 10:36:27;;;;;;;;;;;;;;;15.53;44.60;101094.00;5058420;28;19916;-82
2023/12/28 10:38:53;;;;;;;;;;;;;;;15.60;44.52;101102.66;5089510;28;20320;-82
2023/12/28 10:41:19;;;;;;;;;;;;;;;15.67;44.22;101100.50;5059784;28;19956;-81
2023/12/28 10:43:59;;;;;;;;;;;;;;;15.74;44.05;101089.41;5058872;28;19995;-82
2023/12/28 10:46:30;;;;;;;;;;;;;;;15.83;44.03;101088.56;5058222;28;19920;-82
2023/12/28 10:49:15;;;;;;;;;;;;;;;15.80;43.67;101093.69;5057384;28;20018;-82
2023/12/28 10:51:45;;;;;;;;;;;;;;;15.90;43.67;101083.69;5057222;28;19932;-82
2023/12/28 10:54:18;;;;;;;;;;;;;;;16.01;43.50;101090.69;5059264;28;20249;-81
2023/12/28 10:56:49;;;;;;;;;;;;;;;16.08;43.25;101094.97;5061670;28;19928;-82
2023/12/28 10:59:15;;;;;;;;;;;;;;;16.05;43.50;101073.91;5059165;28;19924;-81
2023/12/28 11:01:41;;;;;;;;;;;;;;;16.09;43.32;101077.66;5091028;28;19921;-82
2023/12/28 11:04:19;;;;;;;;;;;;;;;16.23;43.38;101086.81;5061600;28;19942;-82
2023/12/28 11:06:45;;;;;;;;;;;;;;;16.37;43.15;101076.19;5060409;28;19920;-81
2023/12/28 11:09:11;;;;;;;;;;;;;;;16.42;42.63;101079.69;5060508;28;20698;-82
2023/12/28 11:11:37;;;;;;;;;;;;;;;16.50;42.49;101087.19;5059324;28;19931;-82
2023/12/28 11:14:03;;;;;;;;;;;;;;;16.59;42.34;101084.72;5056402;28;20007;-82
2023/12/28 11:16:29;;;;;;;;;;;;;;;16.69;42.36;101086.56;5059154;28;20012;-82
2023/12/28 11:18:55;;;;;;;;;;;;;;;16.75;42.61;101080.88;5057757;28;19960;-82
2023/12/28 11:21:21;;;;;;;;;;;;;;;16.86;41.74;101074.28;5058815;28;20316;-81
2023/12/28 11:23:48;;;;;;;;;;;;;;;16.94;41.97;101081.00;5060689;28;19943;-82
2023/12/28 11:26:22;;;;;;;;;;;;;;;17.00;42.14;101077.16;5089287;28;19943;-82
2023/12/28 11:28:48;;;;;;;;;;;;;;;17.06;41.87;101069.81;5057877;28;19921;-82
2023/12/28 11:31:13;;;;;;;;;;;;;;;17.12;41.49;101064.06;5059602;28;19928;-82
2023/12/28 11:33:52;;;;;;;;;;;;;;;17.13;41.13;101067.59;5058915;28;19927;-82
2023/12/28 11:36:26;;;;;;;;;;;;;;;17.14;41.19;101071.91;5059678;28;20392;-82
2023/12/28 11:38:58;;;;;;;;;;;;;;;17.22;41.39;101066.66;5058679;28;19979;-82
2023/12/28 11:41:24;;;;;;;;;;;;;;;17.38;41.22;101059.22;5056076;28;20380;-82
2023/12/28 11:43:53;;;;;;;;;;;;;;;17.47;41.22;101064.84;5057778;28;20365;-82
2023/12/28 11:46:19;;;;;;;;;;;;;;;17.55;40.75;101068.81;5060248;28;19931;-82
2023/12/28 11:48:45;;;;;;;;;;;;;;;17.57;40.67;101064.72;5060700;28;19921;-82
2023/12/28 11:51:10;;;;;;;;;;;;;;;17.57;40.30;101062.00;5058551;28;19925;-82
2023/12/28 11:53:36;;;;;;;;;;;;;;;17.56;40.64;101062.28;5056219;28;20007;-82
2023/12/28 11:56:05;;;;;;;;;;;;;;;17.53;40.62;101055.56;5059440;28;19974;-82
2023/12/28 11:58:31;;;;;;;;;;;;;;;17.51;40.59;101057.75;5056843;28;20007;-82
2023/12/28 12:00:57;;;;;;;;;;;;;;;17.53;40.63;101044.72;5060163;28;20577;-82
2023/12/28 12:03:24;;;;;;;;;;;;;;;17.55;40.56;101036.28;5062146;28;20355;-82
2023/12/28 12:05:49;;;;;;;;;;;;;;;17.58;40.16;101033.00;5060348;28;20483;-82
2023/12/28 12:08:15;;;;;;;;;;;;;;;17.62;40.12;101026.75;5060652;28;19935;-82
2023/12/28 12:10:41;;;;;;;;;;;;;;;17.59;39.64;101008.34;5056305;28;19947;-82
2023/12/28 12:13:06;;;;;;;;;;;;;;;17.57;40.13;101004.31;5057580;28;19916;-82
2023/12/28 12:15:31;;;;;;;;;;;;;;;17.56;40.05;100979.13;5059050;28;19925;-82
2023/12/28 12:17:57;;;;;;;;;;;;;;;17.42;39.63;100983.63;5059394;28;19920;-82
2023/12/28 12:20:23;;;;;;;;;;;;;;;17.39;39.66;100989.59;5054147;28;19980;-83
2023/12/28 12:22:49;;;;;;;;;;;;;;;17.36;40.00;100985.56;5054101;28;20487;-82
2023/12/28 12:25:15;;;;;;;;;;;;;;;17.39;39.90;100995.81;5059248;28;19927;-82
2023/12/28 12:27:41;;;;;;;;;;;;;;;17.36;39.84;100995.59;5059393;28;19927;-82
2023/12/28 12:30:07;;;;;;;;;;;;;;;17.29;40.13;100998.66;5095297;28;20308;-81
2023/12/28 12:32:32;;;;;;;;;;;;;;;17.28;40.34;101016.00;5056918;28;20379;-82